createdAt,value
2022-12-14T00:00:42.746Z,53.75
2022-12-14T00:03:16.677Z,49.17
2022-12-14T00:05:49.183Z,47.53
2022-12-14T00:08:21.883Z,45.45
2022-12-14T00:10:53.964Z,44.75
2022-12-14T00:13:26.669Z,49.75
2022-12-14T00:15:59.081Z,46.83
2022-12-14T00:18:30.966Z,47.08
2022-12-14T00:21:10.879Z,45.33
2022-12-14T00:23:45.499Z,43.17
2022-12-14T00:26:20.437Z,45.97
2022-12-14T00:28:55.614Z,44.60
2022-12-14T00:31:28.169Z,46.38
2022-12-14T00:34:01.671Z,46.08
2022-12-14T00:36:36.416Z,43.78
2022-12-14T00:39:08.766Z,45.28
2022-12-14T00:41:40.696Z,44.07
2022-12-14T00:44:13.963Z,43.42
2022-12-14T00:46:45.913Z,44.58
2022-12-14T00:52:11.428Z,43.65
2022-12-14T00:54:45.047Z,46.97
2022-12-14T00:57:17.396Z,42.38
2022-12-14T00:59:49.730Z,44.00
2022-12-14T01:02:22.941Z,46.15
2022-12-14T01:04:55.307Z,47.70
2022-12-14T01:07:27.598Z,53.13
2022-12-14T01:09:59.470Z,48.58
2022-12-14T01:12:31.795Z,45.17
2022-12-14T01:15:05.020Z,46.30
2022-12-14T01:17:36.899Z,43.58
2022-12-14T01:20:11.133Z,38.10
2022-12-14T01:22:43.418Z,38.88
2022-12-14T01:25:15.390Z,41.92
2022-12-14T01:27:48.564Z,39.67
2022-12-14T01:30:20.756Z,41.08
2022-12-14T01:32:53.648Z,38.10
2022-12-14T01:35:25.607Z,42.33
2022-12-14T01:37:58.827Z,40.97
2022-12-14T01:40:30.982Z,48.42
2022-12-14T01:43:03.801Z,45.33
2022-12-14T01:45:36.072Z,47.23
2022-12-14T01:48:13.917Z,46.65
2022-12-14T01:50:46.233Z,45.55
2022-12-14T01:53:22.971Z,45.17
2022-12-14T01:55:56.352Z,45.17
2022-12-14T01:58:29.886Z,40.67
2022-12-14T02:01:02.745Z,42.45
2022-12-14T02:03:41.049Z,45.45
2022-12-14T02:06:22.039Z,45.15
2022-12-14T02:08:56.888Z,41.17
2022-12-14T02:11:52.182Z,49.77
2022-12-14T02:14:25.182Z,55.15
2022-12-14T02:16:58.015Z,55.03
2022-12-14T02:19:32.456Z,56.33
2022-12-14T02:22:58.410Z,52.53
2022-12-14T02:26:03.909Z,52.47
2022-12-14T02:29:24.244Z,52.55
2022-12-14T02:32:29.741Z,56.40
2022-12-14T02:35:22.320Z,60.53
2022-12-14T02:38:23.621Z,63.00
2022-12-14T02:41:23.229Z,59.47
2022-12-14T02:44:41.865Z,61.10
2022-12-14T02:47:36.888Z,58.22
2022-12-14T02:50:34.298Z,62.75
2022-12-14T02:53:35.889Z,61.67
2022-12-14T02:56:13.072Z,58.97
2022-12-14T02:58:50.954Z,64.88
2022-12-14T03:01:27.867Z,61.97
2022-12-14T03:04:01.683Z,69.32
2022-12-14T03:06:33.694Z,61.50
2022-12-14T03:09:14.575Z,64.27
2022-12-14T03:11:56.280Z,57.42
2022-12-14T03:14:40.361Z,51.38
2022-12-14T03:17:26.226Z,60.28
2022-12-14T03:20:08.320Z,54.72
2022-12-14T03:22:49.784Z,51.23
2022-12-14T03:25:48.659Z,57.63
2022-12-14T03:28:29.476Z,57.88
2022-12-14T03:31:13.972Z,53.55
2022-12-14T03:33:48.983Z,48.95
2022-12-14T03:36:41.789Z,56.93
2022-12-14T03:39:27.593Z,50.22
2022-12-14T03:42:12.545Z,51.10
2022-12-14T03:44:56.809Z,52.33
2022-12-14T03:47:55.036Z,53.67
2022-12-14T03:51:02.944Z,53.10
2022-12-14T03:54:03.867Z,53.85
2022-12-14T03:56:49.692Z,58.25
2022-12-14T03:59:37.865Z,50.05
2022-12-14T04:02:23.829Z,51.80
2022-12-14T04:05:09.212Z,55.63
2022-12-14T04:08:11.635Z,53.25
2022-12-14T04:11:07.456Z,57.45
2022-12-14T04:14:06.770Z,53.17
2022-12-14T04:17:01.194Z,56.90
2022-12-14T04:19:54.343Z,54.67
2022-12-14T04:22:33.165Z,51.50
2022-12-14T04:25:36.442Z,52.05
2022-12-14T04:28:41.216Z,51.92
2022-12-14T04:31:18.776Z,48.83
2022-12-14T04:33:55.187Z,51.37
2022-12-14T04:36:40.498Z,48.55
2022-12-14T04:39:23.883Z,49.40
2022-12-14T04:42:01.301Z,47.58
2022-12-14T04:44:39.375Z,47.78
2022-12-14T04:47:15.932Z,50.87
2022-12-14T04:49:57.317Z,49.92
2022-12-14T04:52:51.927Z,51.05
2022-12-14T04:55:28.631Z,51.97
2022-12-14T04:58:20.520Z,44.47
2022-12-14T05:01:08.743Z,51.83
2022-12-14T05:04:12.483Z,45.92
2022-12-14T05:06:50.926Z,49.33
2022-12-14T05:09:34.868Z,49.60
2022-12-14T05:12:41.385Z,55.03
2022-12-14T05:15:23.835Z,49.77
2022-12-14T05:17:56.146Z,47.65
2022-12-14T05:20:28.835Z,48.42
2022-12-14T05:23:01.147Z,49.78
2022-12-14T05:25:33.078Z,49.83
2022-12-14T05:28:05.770Z,56.27
2022-12-14T05:30:38.483Z,53.97
2022-12-14T05:33:20.337Z,56.88
2022-12-14T05:35:52.812Z,51.53
2022-12-14T05:38:25.105Z,52.92
2022-12-14T05:40:57.578Z,47.70
2022-12-14T05:43:30.538Z,51.13
2022-12-14T05:46:04.945Z,47.33
2022-12-14T05:48:37.887Z,57.03
2022-12-14T05:51:13.203Z,58.40
2022-12-14T05:53:45.941Z,52.40
2022-12-14T05:56:17.800Z,67.38
2022-12-14T05:58:51.326Z,61.08
2022-12-14T06:01:23.947Z,61.85
2022-12-14T06:03:56.353Z,64.90
2022-12-14T06:06:29.175Z,61.17
2022-12-14T06:09:01.516Z,61.42
2022-12-14T06:11:37.962Z,57.10
2022-12-14T06:14:10.982Z,56.97
2022-12-14T06:16:46.725Z,58.85
2022-12-14T06:19:19.757Z,64.60
2022-12-14T06:21:52.105Z,62.63
2022-12-14T06:24:24.403Z,71.30
2022-12-14T06:26:57.076Z,55.50
2022-12-14T06:29:29.015Z,57.40
2022-12-14T06:32:02.296Z,61.10
2022-12-14T06:34:39.078Z,67.30
2022-12-14T06:37:13.733Z,67.80
2022-12-14T06:39:52.624Z,61.42
2022-12-14T06:42:26.500Z,60.95
2022-12-14T06:44:59.250Z,58.63
2022-12-14T06:47:31.675Z,59.60
2022-12-14T06:50:03.831Z,65.50
2022-12-14T06:52:37.834Z,75.88
2022-12-14T06:55:10.152Z,57.47
2022-12-14T06:57:42.163Z,64.67
2022-12-14T07:00:15.247Z,53.17
2022-12-14T07:02:48.143Z,60.10
2022-12-14T07:05:21.047Z,61.70
2022-12-14T07:07:53.357Z,67.15
2022-12-14T07:10:25.687Z,64.97
2022-12-14T07:12:57.556Z,54.72
2022-12-14T07:15:30.218Z,64.13
2022-12-14T07:18:02.099Z,59.22
2022-12-14T07:20:34.807Z,62.80
2022-12-14T07:23:07.104Z,55.53
2022-12-14T07:25:38.965Z,59.80
2022-12-14T07:28:11.679Z,57.78
2022-12-14T07:30:43.691Z,61.88
2022-12-14T07:33:18.721Z,60.78
2022-12-14T07:35:51.258Z,59.53
2022-12-14T07:38:23.437Z,56.42
2022-12-14T07:41:06.704Z,62.03
2022-12-14T07:43:40.033Z,65.68
2022-12-14T07:46:17.653Z,48.92
2022-12-14T07:48:53.364Z,51.70
2022-12-14T07:51:32.336Z,53.72
2022-12-14T07:54:06.979Z,59.80
2022-12-14T07:56:41.897Z,57.72
2022-12-14T07:59:17.099Z,54.13
2022-12-14T08:01:49.069Z,60.67
2022-12-14T08:04:22.052Z,49.50
2022-12-14T08:06:54.979Z,64.90
2022-12-14T08:09:27.282Z,70.20
2022-12-14T08:12:00.474Z,63.30
2022-12-14T08:14:32.386Z,78.70
2022-12-14T08:17:05.122Z,65.07
2022-12-14T08:19:37.445Z,79.43
2022-12-14T08:22:10.186Z,62.38
2022-12-14T08:24:42.206Z,63.38
2022-12-14T08:27:22.047Z,73.60
2022-12-14T08:29:53.927Z,55.22
2022-12-14T08:32:32.511Z,55.60
2022-12-14T08:35:07.064Z,52.80
2022-12-14T08:37:45.794Z,57.40
2022-12-14T08:40:20.499Z,63.60
2022-12-14T08:42:52.776Z,63.47
2022-12-14T08:45:25.457Z,60.85
2022-12-14T08:47:58.858Z,61.22
2022-12-14T08:50:31.240Z,61.90
2022-12-14T08:53:03.601Z,55.77
2022-12-14T08:55:38.717Z,52.70
2022-12-14T08:58:13.332Z,50.88
2022-12-14T09:00:45.610Z,48.35
2022-12-14T09:03:20.749Z,58.40
2022-12-14T09:05:52.692Z,46.70
2022-12-14T09:08:25.415Z,53.00
2022-12-14T09:10:57.289Z,48.58
2022-12-14T09:13:30.559Z,47.42
2022-12-14T09:16:16.033Z,48.40
2022-12-14T09:18:49.630Z,43.50
2022-12-14T09:21:22.707Z,46.97
2022-12-14T09:23:59.215Z,47.20
2022-12-14T09:26:32.279Z,42.70
2022-12-14T09:29:05.164Z,47.85
2022-12-14T09:31:37.061Z,49.73
2022-12-14T09:34:10.993Z,54.58
2022-12-14T09:36:42.850Z,49.78
2022-12-14T09:39:16.178Z,50.05
2022-12-14T09:42:10.239Z,48.92
2022-12-14T09:45:01.485Z,51.60
2022-12-14T09:47:48.331Z,46.83
2022-12-14T09:50:22.928Z,47.20
2022-12-14T09:52:59.909Z,42.55
2022-12-14T09:55:38.184Z,48.05
2022-12-14T09:58:24.466Z,45.47
2022-12-14T10:01:22.689Z,48.67
2022-12-14T10:04:29.337Z,42.72
2022-12-14T10:07:28.396Z,38.88
2022-12-14T10:10:26.617Z,44.13
2022-12-14T10:13:40.011Z,41.70
2022-12-14T10:16:44.845Z,42.45
2022-12-14T10:19:35.009Z,42.22
2022-12-14T10:22:13.776Z,39.03
2022-12-14T10:25:06.702Z,45.05
2022-12-14T10:28:10.839Z,40.73
2022-12-14T10:30:36.057Z,39.40
2022-12-14T10:33:29.936Z,44.92
2022-12-14T10:36:38.041Z,44.65
2022-12-14T10:39:44.029Z,39.63
2022-12-14T10:43:20.188Z,44.37
2022-12-14T10:45:59.638Z,36.65
2022-12-14T10:49:13.872Z,34.72
2022-12-14T10:51:50.519Z,36.38
2022-12-14T10:54:29.849Z,40.85
2022-12-14T10:57:02.311Z,46.43
2022-12-14T10:59:44.540Z,45.13
2022-12-14T11:02:24.143Z,46.78
2022-12-14T11:05:09.404Z,47.88
2022-12-14T11:07:49.854Z,48.72
2022-12-14T11:10:27.784Z,55.30
2022-12-14T11:13:17.215Z,47.20
2022-12-14T11:15:52.399Z,55.83
2022-12-14T11:18:31.963Z,52.90
2022-12-14T11:21:06.362Z,56.83
2022-12-14T11:23:48.402Z,55.37
2022-12-14T11:26:30.853Z,54.35
2022-12-14T11:29:07.359Z,61.25
2022-12-14T11:31:44.914Z,54.83
2022-12-14T11:34:34.923Z,57.13
2022-12-14T11:37:22.285Z,56.23
2022-12-14T11:40:23.292Z,59.85
2022-12-14T11:43:03.488Z,65.20
2022-12-14T11:45:37.724Z,63.50
2022-12-14T11:48:15.982Z,73.13
2022-12-14T11:50:49.865Z,85.87
2022-12-14T11:53:24.024Z,60.67
2022-12-14T11:56:17.949Z,66.07
2022-12-14T11:58:54.714Z,56.92
2022-12-14T12:01:27.366Z,64.35
2022-12-14T12:04:01.439Z,59.97
2022-12-14T12:06:33.563Z,59.08
2022-12-14T12:09:29.624Z,70.60
2022-12-14T12:12:02.342Z,63.50
2022-12-14T12:14:38.089Z,71.28
2022-12-14T12:17:35.973Z,67.97
2022-12-14T12:20:40.804Z,57.53
2022-12-14T12:23:45.230Z,65.78
2022-12-14T12:26:25.173Z,69.97
2022-12-14T12:29:14.642Z,59.30
2022-12-14T12:32:01.746Z,73.07
2022-12-14T12:34:46.274Z,60.10
2022-12-14T12:37:30.603Z,62.15
2022-12-14T12:40:21.027Z,61.38
2022-12-14T12:42:59.008Z,63.45
2022-12-14T12:45:36.110Z,58.73
2022-12-14T12:48:28.697Z,69.65
2022-12-14T12:51:12.404Z,62.33
2022-12-14T12:54:13.955Z,61.17
2022-12-14T12:56:52.450Z,57.47
2022-12-14T12:59:45.742Z,61.67
2022-12-14T13:02:42.990Z,63.58
2022-12-14T13:05:45.631Z,50.65
2022-12-14T13:08:26.500Z,57.65
2022-12-14T13:11:27.805Z,53.17
2022-12-14T13:14:13.578Z,51.30
2022-12-14T13:16:47.653Z,44.25
2022-12-14T13:19:50.609Z,50.25
2022-12-14T13:22:31.213Z,49.88
2022-12-14T13:25:14.959Z,56.03
2022-12-14T13:28:18.604Z,41.70
2022-12-14T13:31:17.477Z,45.85
2022-12-14T13:34:14.373Z,50.65
2022-12-14T13:37:07.183Z,48.05
2022-12-14T13:39:56.740Z,47.55
2022-12-14T13:43:05.932Z,49.37
2022-12-14T13:45:46.189Z,48.40
2022-12-14T13:48:36.586Z,51.20
2022-12-14T13:51:28.210Z,53.67
2022-12-14T13:54:05.200Z,49.28
2022-12-14T13:56:39.840Z,51.27
2022-12-14T13:59:39.524Z,45.00
2022-12-14T14:02:29.788Z,47.70
2022-12-14T14:05:24.721Z,43.83
2022-12-14T14:08:41.075Z,49.15
2022-12-14T14:11:39.964Z,53.83
2022-12-14T14:14:25.745Z,50.20
2022-12-14T14:17:04.229Z,49.00
2022-12-14T14:19:41.725Z,51.95
2022-12-14T14:22:23.904Z,53.75
2022-12-14T14:25:09.546Z,44.03
2022-12-14T14:27:50.707Z,51.30
2022-12-14T14:30:37.588Z,53.83
2022-12-14T14:33:47.737Z,45.83
2022-12-14T14:36:27.490Z,49.80
2022-12-14T14:39:46.635Z,46.87
2022-12-14T14:42:18.485Z,49.65
2022-12-14T14:44:57.246Z,52.45
2022-12-14T14:47:42.083Z,53.80
2022-12-14T14:50:13.941Z,51.40
2022-12-14T14:53:10.561Z,55.17
2022-12-14T14:55:53.769Z,51.17
2022-12-14T14:58:39.232Z,55.28
2022-12-14T15:01:29.501Z,51.65
2022-12-14T15:04:06.493Z,58.50
2022-12-14T15:06:42.296Z,56.33
2022-12-14T15:09:26.218Z,53.13
2022-12-14T15:12:39.346Z,60.40
2022-12-14T15:15:47.273Z,54.58
2022-12-14T15:18:30.747Z,56.65
2022-12-14T15:21:22.613Z,52.63
2022-12-14T15:23:56.058Z,58.50
2022-12-14T15:26:33.092Z,61.00
2022-12-14T15:29:05.976Z,57.20
2022-12-14T15:31:40.844Z,63.17
2022-12-14T15:34:18.546Z,55.23
2022-12-14T15:36:51.651Z,52.05
2022-12-14T15:39:38.598Z,54.55
2022-12-14T15:42:16.736Z,56.20
2022-12-14T15:44:54.734Z,56.47
2022-12-14T15:47:29.961Z,59.60
2022-12-14T15:50:32.890Z,57.50
2022-12-14T15:53:49.936Z,59.20
2022-12-14T15:56:34.666Z,59.63
2022-12-14T15:59:29.739Z,64.30
2022-12-14T16:02:15.730Z,61.70
2022-12-14T16:04:49.342Z,63.63
2022-12-14T16:07:31.381Z,57.88
2022-12-14T16:10:18.818Z,65.15
2022-12-14T16:12:56.340Z,63.28
2022-12-14T16:15:29.603Z,56.17
2022-12-14T16:18:03.437Z,57.78
2022-12-14T16:20:38.537Z,59.13
2022-12-14T16:23:13.443Z,58.38
2022-12-14T16:25:58.483Z,50.70
2022-12-14T16:28:37.152Z,52.00
2022-12-14T16:31:24.550Z,50.25
2022-12-14T16:34:15.781Z,46.38
2022-12-14T16:37:14.644Z,52.80
2022-12-14T16:39:49.573Z,49.65
2022-12-14T16:42:27.074Z,50.73
2022-12-14T16:44:58.984Z,48.10
2022-12-14T16:47:34.358Z,50.47
2022-12-14T16:50:55.976Z,50.63
2022-12-14T16:53:29.900Z,51.88
2022-12-14T16:56:16.379Z,57.93
2022-12-14T16:58:54.464Z,59.20
2022-12-14T17:01:27.496Z,50.65
2022-12-14T17:04:04.681Z,56.25
2022-12-14T17:06:55.648Z,55.20
2022-12-14T17:09:30.758Z,56.23
2022-12-14T17:12:14.496Z,58.33
2022-12-14T17:14:50.002Z,58.55
2022-12-14T17:17:34.003Z,60.20
2022-12-14T17:20:14.422Z,65.13
2022-12-14T17:22:49.724Z,58.17
2022-12-14T17:25:22.424Z,55.95
2022-12-14T17:27:54.658Z,61.42
2022-12-14T17:30:28.830Z,59.80
2022-12-14T17:33:00.855Z,55.90
2022-12-14T17:35:33.294Z,55.83
2022-12-14T17:38:14.491Z,56.03
2022-12-14T17:40:49.500Z,55.38
2022-12-14T17:43:26.723Z,54.22
2022-12-14T17:46:01.514Z,52.13
2022-12-14T17:48:33.570Z,56.90
2022-12-14T17:51:06.236Z,53.95
2022-12-14T17:53:38.364Z,52.58
2022-12-14T17:56:10.764Z,49.85
2022-12-14T17:58:45.285Z,45.65
2022-12-14T18:01:23.064Z,46.40
2022-12-14T18:03:55.209Z,50.03
2022-12-14T18:06:27.754Z,52.75
2022-12-14T18:08:59.662Z,53.65
2022-12-14T18:11:32.108Z,53.20
2022-12-14T18:14:04.066Z,54.10
2022-12-14T18:16:36.716Z,49.45
2022-12-14T18:19:08.753Z,50.42
2022-12-14T18:21:41.169Z,55.47
2022-12-14T18:24:15.306Z,55.83
2022-12-14T18:26:47.993Z,55.20
2022-12-14T18:29:21.231Z,56.17
2022-12-14T18:31:53.814Z,56.45
2022-12-14T18:34:25.822Z,52.75
2022-12-14T18:36:58.344Z,54.92
2022-12-14T18:39:30.297Z,55.13
2022-12-14T18:42:02.932Z,51.42
2022-12-14T18:44:34.910Z,55.45
2022-12-14T18:47:33.546Z,53.47
2022-12-14T18:49:59.810Z,52.88
2022-12-14T18:52:32.303Z,55.20
2022-12-14T18:55:06.537Z,60.92
2022-12-14T18:57:39.050Z,65.40
2022-12-14T19:00:14.852Z,63.20
2022-12-14T19:02:50.208Z,62.53
2022-12-14T19:05:26.101Z,71.10
2022-12-14T19:08:00.605Z,68.93
2022-12-14T19:10:33.143Z,66.32
2022-12-14T19:13:06.326Z,134.15
2022-12-14T19:15:38.510Z,107.07
2022-12-14T19:18:11.077Z,63.63
2022-12-14T19:20:43.041Z,55.55
2022-12-14T19:23:17.759Z,55.67
2022-12-14T19:25:49.771Z,56.65
2022-12-14T19:28:37.628Z,54.08
2022-12-14T19:31:11.200Z,53.73
2022-12-14T19:33:43.645Z,53.00
2022-12-14T19:36:16.678Z,52.92
2022-12-14T19:38:49.757Z,56.38
2022-12-14T19:41:21.810Z,57.67
2022-12-14T19:43:57.611Z,62.07
2022-12-14T19:46:29.803Z,62.75
2022-12-14T19:49:02.886Z,59.85
2022-12-14T19:51:34.807Z,61.92
2022-12-14T19:54:07.286Z,61.60
2022-12-14T19:56:40.290Z,54.03
2022-12-14T19:59:12.687Z,59.67
2022-12-14T20:01:47.997Z,55.08
2022-12-14T20:04:21.082Z,55.25
2022-12-14T20:06:53.179Z,55.00
2022-12-14T20:09:25.566Z,51.77
2022-12-14T20:11:58.059Z,50.75
2022-12-14T20:14:30.600Z,47.33
2022-12-14T20:17:02.496Z,46.95
2022-12-14T20:19:35.998Z,47.17
2022-12-14T20:22:08.803Z,54.93
2022-12-14T20:24:42.698Z,48.20
2022-12-14T20:27:15.910Z,52.60
2022-12-14T20:29:48.389Z,50.20
2022-12-14T20:32:20.708Z,51.78
2022-12-14T20:34:53.208Z,50.50
2022-12-14T20:37:25.196Z,52.70
2022-12-14T20:39:57.678Z,50.78
2022-12-14T20:42:29.617Z,47.95
2022-12-14T20:45:06.899Z,45.38
2022-12-14T20:47:39.568Z,49.80
2022-12-14T20:50:12.265Z,50.80
2022-12-14T20:52:44.429Z,42.95
2022-12-14T20:55:16.887Z,44.08
2022-12-14T20:57:48.807Z,45.30
2022-12-14T21:00:22.040Z,44.03
2022-12-14T21:02:54.250Z,43.17
2022-12-14T21:05:26.838Z,44.30
2022-12-14T21:07:58.735Z,41.75
2022-12-14T21:10:31.205Z,44.53
2022-12-14T21:13:07.610Z,42.77
2022-12-14T21:15:40.381Z,41.55
2022-12-14T21:18:12.376Z,39.67
2022-12-14T21:20:44.817Z,33.03
2022-12-14T21:23:21.460Z,38.25
2022-12-14T21:25:53.897Z,37.40
2022-12-14T21:28:31.812Z,39.30
2022-12-14T21:31:07.279Z,42.15
2022-12-14T21:33:39.175Z,64.28
2022-12-14T21:36:12.723Z,93.72
2022-12-14T21:38:44.689Z,117.00
2022-12-14T21:41:39.979Z,116.03
2022-12-14T21:44:11.748Z,126.07
2022-12-14T21:46:44.291Z,147.68
2022-12-14T21:49:16.281Z,184.98
2022-12-14T21:51:49.588Z,186.50
2022-12-14T21:54:24.141Z,194.82
2022-12-14T21:57:14.925Z,194.23
2022-12-14T21:59:46.910Z,173.57
2022-12-14T22:02:24.154Z,132.45
2022-12-14T22:04:56.475Z,95.60
2022-12-14T22:07:34.026Z,85.40
2022-12-14T22:10:06.234Z,66.50
2022-12-14T22:12:38.723Z,61.42
2022-12-14T22:15:10.836Z,52.00
2022-12-14T22:17:43.739Z,38.93
2022-12-14T22:20:15.704Z,34.45
2022-12-14T22:22:48.143Z,31.50
2022-12-14T22:25:20.030Z,27.73
2022-12-14T22:27:52.765Z,26.58
2022-12-14T22:30:29.933Z,29.23
2022-12-14T22:33:04.037Z,28.35
2022-12-14T22:35:36.139Z,24.77
2022-12-14T22:38:08.608Z,23.70
2022-12-14T22:40:40.541Z,27.25
2022-12-14T22:43:13.164Z,26.50
2022-12-14T22:45:45.551Z,27.05
2022-12-14T22:48:17.999Z,25.65
2022-12-14T22:50:49.951Z,25.58
2022-12-14T22:53:22.384Z,27.27
2022-12-14T22:55:57.784Z,25.27
2022-12-14T22:58:30.482Z,23.38
2022-12-14T23:01:02.732Z,27.85
2022-12-14T23:03:36.901Z,29.48
2022-12-14T23:06:15.597Z,31.88
2022-12-14T23:09:08.653Z,32.67
2022-12-14T23:11:59.265Z,31.63
2022-12-14T23:14:50.058Z,36.30
2022-12-14T23:17:40.519Z,38.13
2022-12-14T23:20:31.585Z,34.05
2022-12-14T23:23:25.551Z,40.43
2022-12-14T23:26:21.281Z,29.13
2022-12-14T23:29:11.744Z,33.58
2022-12-14T23:32:02.586Z,33.70
2022-12-14T23:34:52.876Z,33.47
2022-12-14T23:37:43.754Z,32.00
2022-12-14T23:40:34.535Z,36.05
2022-12-14T23:43:31.497Z,36.95
2022-12-14T23:46:23.699Z,31.73
2022-12-14T23:49:16.141Z,31.10
2022-12-14T23:52:07.055Z,31.13
2022-12-14T23:54:58.033Z,28.45
2022-12-14T23:57:48.553Z,26.77
